sensor_id;sensor_type;location;lat;lon;timestamp;pressure;altitude;pressure_sealevel;temperature;humidity
59106;BME280;44891;50.204;8.132;2023-05-23T00:01:48;98181.25;;;17.85;95.35
59106;BME280;44891;50.204;8.132;2023-05-23T00:05:54;98180.91;;;17.92;94.32
59106;BME280;44891;50.204;8.132;2023-05-23T00:09:56;98182.63;;;17.83;95.31
59106;BME280;44891;50.204;8.132;2023-05-23T00:13:59;98186.06;;;17.83;94.79
59106;BME280;44891;50.204;8.132;2023-05-23T00:18:02;98177.75;;;17.90;93.57
59106;BME280;44891;50.204;8.132;2023-05-23T00:22:03;98176.00;;;17.80;94.18
59106;BME280;44891;50.204;8.132;2023-05-23T00:26:05;98173.34;;;17.80;93.27
59106;BME280;44891;50.204;8.132;2023-05-23T00:30:09;98175.22;;;17.80;93.10
59106;BME280;44891;50.204;8.132;2023-05-23T00:34:11;98175.44;;;17.59;93.71
59106;BME280;44891;50.204;8.132;2023-05-23T00:38:12;98173.06;;;17.58;93.50
59106;BME280;44891;50.204;8.132;2023-05-23T00:42:15;98179.47;;;17.57;93.08
59106;BME280;44891;50.204;8.132;2023-05-23T00:46:19;98182.38;;;17.55;93.06
59106;BME280;44891;50.204;8.132;2023-05-23T00:50:21;98186.00;;;17.64;91.76
59106;BME280;44891;50.204;8.132;2023-05-23T00:54:23;98188.81;;;17.49;92.44
59106;BME280;44891;50.204;8.132;2023-05-23T00:58:28;98188.72;;;17.59;90.88
59106;BME280;44891;50.204;8.132;2023-05-23T01:02:31;98187.44;;;17.57;90.78
59106;BME280;44891;50.204;8.132;2023-05-23T01:06:36;98190.91;;;17.28;92.71
59106;BME280;44891;50.204;8.132;2023-05-23T01:10:37;98193.16;;;17.16;93.31
59106;BME280;44891;50.204;8.132;2023-05-23T01:14:41;98201.41;;;17.15;91.21
59106;BME280;44891;50.204;8.132;2023-05-23T01:18:47;98214.25;;;17.02;92.56
59106;BME280;44891;50.204;8.132;2023-05-23T01:22:58;98209.41;;;17.09;91.45
59106;BME280;44891;50.204;8.132;2023-05-23T01:27:04;98205.09;;;16.90;91.62
59106;BME280;44891;50.204;8.132;2023-05-23T01:31:09;98204.78;;;16.57;93.23
59106;BME280;44891;50.204;8.132;2023-05-23T01:35:12;98211.94;;;16.62;91.84
59106;BME280;44891;50.204;8.132;2023-05-23T01:39:14;98211.22;;;16.51;91.64
59106;BME280;44891;50.204;8.132;2023-05-23T01:43:16;98218.97;;;16.42;91.57
59106;BME280;44891;50.204;8.132;2023-05-23T01:47:19;98212.09;;;16.36;90.80
59106;BME280;44891;50.204;8.132;2023-05-23T01:51:22;98218.59;;;16.20;92.12
59106;BME280;44891;50.204;8.132;2023-05-23T01:55:24;98224.47;;;16.07;92.64
59106;BME280;44891;50.204;8.132;2023-05-23T01:59:26;98222.38;;;16.03;92.08
59106;BME280;44891;50.204;8.132;2023-05-23T02:03:31;98224.81;;;15.95;92.83
59106;BME280;44891;50.204;8.132;2023-05-23T02:07:33;98234.34;;;15.91;92.57
59106;BME280;44891;50.204;8.132;2023-05-23T02:11:35;98230.69;;;15.82;93.06
59106;BME280;44891;50.204;8.132;2023-05-23T02:15:37;98223.81;;;15.81;92.88
59106;BME280;44891;50.204;8.132;2023-05-23T02:19:40;98227.56;;;15.69;93.58
59106;BME280;44891;50.204;8.132;2023-05-23T02:23:42;98235.22;;;15.71;92.99
59106;BME280;44891;50.204;8.132;2023-05-23T02:27:44;98237.91;;;15.66;92.90
59106;BME280;44891;50.204;8.132;2023-05-23T02:31:46;98240.28;;;15.62;93.35
59106;BME280;44891;50.204;8.132;2023-05-23T02:35:49;98237.09;;;15.50;94.07
59106;BME280;44891;50.204;8.132;2023-05-23T02:39:51;98249.31;;;15.46;94.07
59106;BME280;44891;50.204;8.132;2023-05-23T02:43:53;98253.28;;;15.48;94.16
59106;BME280;44891;50.204;8.132;2023-05-23T02:47:55;98264.66;;;15.49;92.91
59106;BME280;44891;50.204;8.132;2023-05-23T02:52:00;98266.00;;;15.36;93.81
59106;BME280;44891;50.204;8.132;2023-05-23T02:56:02;98266.53;;;15.23;94.49
59106;BME280;44891;50.204;8.132;2023-05-23T03:00:04;98261.81;;;15.20;95.16
59106;BME280;44891;50.204;8.132;2023-05-23T03:04:08;98273.16;;;15.26;94.43
59106;BME280;44891;50.204;8.132;2023-05-23T03:08:11;98271.56;;;15.24;94.63
59106;BME280;44891;50.204;8.132;2023-05-23T03:12:14;98276.34;;;15.33;94.57
59106;BME280;44891;50.204;8.132;2023-05-23T03:16:16;98278.97;;;15.33;93.73
59106;BME280;44891;50.204;8.132;2023-05-23T03:20:18;98280.53;;;15.44;92.76
59106;BME280;44891;50.204;8.132;2023-05-23T03:24:21;98275.50;;;15.42;93.09
59106;BME280;44891;50.204;8.132;2023-05-23T03:28:23;98271.56;;;15.40;92.21
59106;BME280;44891;50.204;8.132;2023-05-23T03:32:25;98280.28;;;15.40;91.54
59106;BME280;44891;50.204;8.132;2023-05-23T03:36:27;98277.63;;;15.40;90.85
59106;BME280;44891;50.204;8.132;2023-05-23T03:40:34;98287.94;;;15.37;91.28
59106;BME280;44891;50.204;8.132;2023-05-23T03:44:35;98282.91;;;15.50;90.88
59106;BME280;44891;50.204;8.132;2023-05-23T03:48:39;98281.31;;;15.49;90.51
59106;BME280;44891;50.204;8.132;2023-05-23T03:52:41;98279.22;;;15.31;92.17
59106;BME280;44891;50.204;8.132;2023-05-23T03:56:45;98290.09;;;15.19;93.16
59106;BME280;44891;50.204;8.132;2023-05-23T04:00:47;98294.59;;;15.04;91.75
59106;BME280;44891;50.204;8.132;2023-05-23T04:04:50;98291.44;;;15.02;91.07
59106;BME280;44891;50.204;8.132;2023-05-23T04:08:54;98287.97;;;15.21;87.92
59106;BME280;44891;50.204;8.132;2023-05-23T04:12:57;98294.84;;;15.17;87.00
59106;BME280;44891;50.204;8.132;2023-05-23T04:16:59;98293.28;;;15.06;86.25
59106;BME280;44891;50.204;8.132;2023-05-23T04:21:01;98297.78;;;14.95;86.85
59106;BME280;44891;50.204;8.132;2023-05-23T04:25:05;98304.91;;;15.05;86.20
59106;BME280;44891;50.204;8.132;2023-05-23T04:29:13;98313.38;;;14.87;87.26
59106;BME280;44891;50.204;8.132;2023-05-23T04:33:16;98316.81;;;14.98;87.75
59106;BME280;44891;50.204;8.132;2023-05-23T04:37:19;98317.84;;;14.91;87.80
59106;BME280;44891;50.204;8.132;2023-05-23T04:41:25;98317.88;;;14.86;87.66
59106;BME280;44891;50.204;8.132;2023-05-23T04:45:47;98321.31;;;15.02;86.51
59106;BME280;44891;50.204;8.132;2023-05-23T04:50:11;98318.13;;;15.05;85.65
59106;BME280;44891;50.204;8.132;2023-05-23T04:54:15;98329.78;;;15.14;85.33
59106;BME280;44891;50.204;8.132;2023-05-23T04:58:16;98325.28;;;15.20;84.00
59106;BME280;44891;50.204;8.132;2023-05-23T05:02:20;98344.56;;;15.05;85.25
59106;BME280;44891;50.204;8.132;2023-05-23T05:06:22;98329.00;;;15.14;85.13
59106;BME280;44891;50.204;8.132;2023-05-23T05:10:25;98344.34;;;15.07;85.46
59106;BME280;44891;50.204;8.132;2023-05-23T05:14:27;98349.88;;;15.00;86.17
59106;BME280;44891;50.204;8.132;2023-05-23T05:18:31;98346.44;;;15.00;86.61
59106;BME280;44891;50.204;8.132;2023-05-23T05:22:33;98352.00;;;14.93;86.66
59106;BME280;44891;50.204;8.132;2023-05-23T05:26:36;98358.31;;;14.92;86.59
59106;BME280;44891;50.204;8.132;2023-05-23T05:30:38;98357.53;;;14.91;85.52
59106;BME280;44891;50.204;8.132;2023-05-23T05:34:42;98358.34;;;15.02;83.85
59106;BME280;44891;50.204;8.132;2023-05-23T05:38:44;98357.78;;;15.05;83.22
59106;BME280;44891;50.204;8.132;2023-05-23T05:42:46;98363.09;;;15.00;83.91
59106;BME280;44891;50.204;8.132;2023-05-23T05:46:48;98363.34;;;14.88;84.52
59106;BME280;44891;50.204;8.132;2023-05-23T05:50:53;98361.25;;;15.06;83.69
59106;BME280;44891;50.204;8.132;2023-05-23T05:54:55;98367.09;;;15.13;83.04
59106;BME280;44891;50.204;8.132;2023-05-23T05:58:57;98375.53;;;15.05;83.92
59106;BME280;44891;50.204;8.132;2023-05-23T06:03:00;98373.16;;;15.08;84.09
59106;BME280;44891;50.204;8.132;2023-05-23T06:07:11;98379.75;;;15.11;84.69
59106;BME280;44891;50.204;8.132;2023-05-23T06:11:12;98375.50;;;14.89;85.79
59106;BME280;44891;50.204;8.132;2023-05-23T06:15:14;98375.22;;;14.81;87.14
59106;BME280;44891;50.204;8.132;2023-05-23T06:19:16;98377.06;;;14.85;87.68
59106;BME280;44891;50.204;8.132;2023-05-23T06:23:20;98384.19;;;14.69;89.54
59106;BME280;44891;50.204;8.132;2023-05-23T06:27:22;98385.56;;;14.98;88.39
59106;BME280;44891;50.204;8.132;2023-05-23T06:31:24;98383.97;;;14.96;88.46
59106;BME280;44891;50.204;8.132;2023-05-23T06:35:26;98386.91;;;15.00;89.12
59106;BME280;44891;50.204;8.132;2023-05-23T06:39:29;98382.69;;;14.99;89.34
59106;BME280;44891;50.204;8.132;2023-05-23T06:43:31;98384.22;;;14.85;89.53
59106;BME280;44891;50.204;8.132;2023-05-23T06:48:08;98384.25;;;15.10;88.16
59106;BME280;44891;50.204;8.132;2023-05-23T06:52:13;98381.09;;;15.49;85.56
59106;BME280;44891;50.204;8.132;2023-05-23T06:56:17;98379.00;;;15.71;84.61
59106;BME280;44891;50.204;8.132;2023-05-23T07:00:30;98376.06;;;15.83;84.20
59106;BME280;44891;50.204;8.132;2023-05-23T07:04:40;98387.16;;;15.95;83.56
59106;BME280;44891;50.204;8.132;2023-05-23T07:08:49;98384.00;;;15.88;83.60
59106;BME280;44891;50.204;8.132;2023-05-23T07:12:52;98391.09;;;16.08;83.01
59106;BME280;44891;50.204;8.132;2023-05-23T07:16:56;98384.78;;;15.99;82.63
59106;BME280;44891;50.204;8.132;2023-05-23T07:20:58;98390.59;;;15.96;82.51
59106;BME280;44891;50.204;8.132;2023-05-23T07:25:00;98397.28;;;15.73;83.83
59106;BME280;44891;50.204;8.132;2023-05-23T07:29:07;98393.28;;;15.60;85.20
59106;BME280;44891;50.204;8.132;2023-05-23T07:33:10;98393.28;;;15.81;84.44
59106;BME280;44891;50.204;8.132;2023-05-23T07:37:12;98392.72;;;15.99;84.62
59106;BME280;44891;50.204;8.132;2023-05-23T07:41:17;98392.97;;;16.02;83.59
59106;BME280;44891;50.204;8.132;2023-05-23T07:45:21;98389.00;;;16.05;82.72
59106;BME280;44891;50.204;8.132;2023-05-23T07:49:23;98396.47;;;15.83;84.59
59106;BME280;44891;50.204;8.132;2023-05-23T07:53:27;98396.72;;;15.61;85.71
59106;BME280;44891;50.204;8.132;2023-05-23T07:57:29;98400.69;;;15.84;85.25
59106;BME280;44891;50.204;8.132;2023-05-23T08:01:32;98407.03;;;15.88;84.05
59106;BME280;44891;50.204;8.132;2023-05-23T08:05:40;98400.97;;;15.87;84.69
59106;BME280;44891;50.204;8.132;2023-05-23T08:09:42;98402.50;;;16.09;83.01
59106;BME280;44891;50.204;8.132;2023-05-23T08:13:47;98414.59;;;16.35;81.96
59106;BME280;44891;50.204;8.132;2023-05-23T08:18:09;98418.25;;;16.49;79.82
59106;BME280;44891;50.204;8.132;2023-05-23T08:22:11;98420.34;;;16.63;79.37
59106;BME280;44891;50.204;8.132;2023-05-23T08:26:13;98427.50;;;16.62;79.57
59106;BME280;44891;50.204;8.132;2023-05-23T08:30:15;98422.97;;;16.63;79.95
59106;BME280;44891;50.204;8.132;2023-05-23T08:34:19;98430.66;;;16.69;79.70
59106;BME280;44891;50.204;8.132;2023-05-23T08:38:22;98437.41;;;16.36;80.01
59106;BME280;44891;50.204;8.132;2023-05-23T08:42:34;98437.16;;;16.22;79.59
59106;BME280;44891;50.204;8.132;2023-05-23T08:46:39;98450.94;;;16.29;79.61
59106;BME280;44891;50.204;8.132;2023-05-23T08:50:47;98441.34;;;16.44;77.78
59106;BME280;44891;50.204;8.132;2023-05-23T08:54:52;98442.88;;;16.60;77.16
59106;BME280;44891;50.204;8.132;2023-05-23T08:58:55;98441.81;;;16.71;77.38
59106;BME280;44891;50.204;8.132;2023-05-23T09:02:58;98446.50;;;16.90;75.62
59106;BME280;44891;50.204;8.132;2023-05-23T09:07:34;98453.41;;;16.91;75.62
59106;BME280;44891;50.204;8.132;2023-05-23T09:11:37;98450.78;;;16.85;76.26
59106;BME280;44891;50.204;8.132;2023-05-23T09:15:54;98454.22;;;16.81;75.67
59106;BME280;44891;50.204;8.132;2023-05-23T09:19:59;98452.06;;;16.88;75.83
59106;BME280;44891;50.204;8.132;2023-05-23T09:24:15;98448.53;;;17.03;76.58
59106;BME280;44891;50.204;8.132;2023-05-23T09:28:17;98443.69;;;17.15;76.42
59106;BME280;44891;50.204;8.132;2023-05-23T09:32:19;98451.97;;;17.48;74.53
59106;BME280;44891;50.204;8.132;2023-05-23T09:36:21;98454.59;;;17.13;74.84
59106;BME280;44891;50.204;8.132;2023-05-23T09:40:29;98455.59;;;16.68;77.71
59106;BME280;44891;50.204;8.132;2023-05-23T09:44:35;98464.13;;;16.50;79.25
59106;BME280;44891;50.204;8.132;2023-05-23T09:48:45;98464.19;;;16.29;80.23
59106;BME280;44891;50.204;8.132;2023-05-23T09:52:47;98479.00;;;16.41;80.10
59106;BME280;44891;50.204;8.132;2023-05-23T09:56:50;98457.50;;;16.52;80.06
59106;BME280;44891;50.204;8.132;2023-05-23T10:00:54;98464.22;;;16.99;77.69
59106;BME280;44891;50.204;8.132;2023-05-23T10:04:56;98466.75;;;17.25;76.46
59106;BME280;44891;50.204;8.132;2023-05-23T10:09:00;98448.34;;;17.38;75.23
59106;BME280;44891;50.204;8.132;2023-05-23T10:13:04;98474.44;;;17.21;74.52
59106;BME280;44891;50.204;8.132;2023-05-23T10:17:07;98468.72;;;17.04;75.78
59106;BME280;44891;50.204;8.132;2023-05-23T10:21:16;98481.47;;;16.97;75.87
59106;BME280;44891;50.204;8.132;2023-05-23T10:25:20;98489.22;;;16.88;77.48
59106;BME280;44891;50.204;8.132;2023-05-23T10:29:23;98485.38;;;16.40;78.65
59106;BME280;44891;50.204;8.132;2023-05-23T10:33:25;98493.38;;;16.24;80.04
59106;BME280;44891;50.204;8.132;2023-05-23T10:37:30;98493.56;;;16.48;79.64
59106;BME280;44891;50.204;8.132;2023-05-23T10:41:35;98499.94;;;16.42;80.57
59106;BME280;44891;50.204;8.132;2023-05-23T10:45:41;98492.53;;;16.24;80.83
59106;BME280;44891;50.204;8.132;2023-05-23T10:49:44;98499.22;;;16.06;81.26
59106;BME280;44891;50.204;8.132;2023-05-23T10:53:51;98507.69;;;15.83;82.26
59106;BME280;44891;50.204;8.132;2023-05-23T10:58:09;98503.16;;;16.03;82.04
59106;BME280;44891;50.204;8.132;2023-05-23T11:02:14;98503.47;;;15.87;81.77
59106;BME280;44891;50.204;8.132;2023-05-23T11:06:27;98502.09;;;15.64;83.02
59106;BME280;44891;50.204;8.132;2023-05-23T11:10:29;98511.31;;;15.51;83.98
59106;BME280;44891;50.204;8.132;2023-05-23T11:14:31;98512.66;;;15.54;84.13
59106;BME280;44891;50.204;8.132;2023-05-23T11:18:35;98511.88;;;15.58;84.01
59106;BME280;44891;50.204;8.132;2023-05-23T11:22:38;98519.56;;;15.60;83.02
59106;BME280;44891;50.204;8.132;2023-05-23T11:26:50;98528.59;;;16.15;79.59
59106;BME280;44891;50.204;8.132;2023-05-23T11:30:52;98529.38;;;16.51;78.85
59106;BME280;44891;50.204;8.132;2023-05-23T11:34:55;98524.91;;;16.26;77.69
59106;BME280;44891;50.204;8.132;2023-05-23T11:39:00;98536.28;;;15.81;80.47
59106;BME280;44891;50.204;8.132;2023-05-23T11:43:03;98531.50;;;15.67;79.85
59106;BME280;44891;50.204;8.132;2023-05-23T11:47:05;98537.59;;;15.68;80.28
59106;BME280;44891;50.204;8.132;2023-05-23T11:51:09;98533.41;;;15.92;79.72
59106;BME280;44891;50.204;8.132;2023-05-23T11:55:11;98496.03;;;15.89;77.88
59106;BME280;44891;50.204;8.132;2023-05-23T11:59:13;98533.63;;;16.31;75.91
59106;BME280;44891;50.204;8.132;2023-05-23T12:03:15;98546.88;;;16.42;75.35
59106;BME280;44891;50.204;8.132;2023-05-23T12:07:19;98539.72;;;16.27;74.41
59106;BME280;44891;50.204;8.132;2023-05-23T12:11:21;98552.47;;;16.20;74.63
59106;BME280;44891;50.204;8.132;2023-05-23T12:15:24;98543.19;;;16.02;75.90
59106;BME280;44891;50.204;8.132;2023-05-23T12:19:26;98560.41;;;15.79;77.21
59106;BME280;44891;50.204;8.132;2023-05-23T12:23:29;98555.09;;;15.74;77.70
59106;BME280;44891;50.204;8.132;2023-05-23T12:27:33;98553.25;;;15.85;77.53
59106;BME280;44891;50.204;8.132;2023-05-23T12:31:36;98553.50;;;15.88;77.69
59106;BME280;44891;50.204;8.132;2023-05-23T12:35:41;98542.38;;;16.22;76.14
59106;BME280;44891;50.204;8.132;2023-05-23T12:39:44;98542.31;;;16.78;73.49
59106;BME280;44891;50.204;8.132;2023-05-23T12:43:50;98538.31;;;17.40;70.73
59106;BME280;44891;50.204;8.132;2023-05-23T12:47:52;98549.03;;;17.20;69.98
59106;BME280;44891;50.204;8.132;2023-05-23T12:51:53;98550.22;;;16.88;71.37
59106;BME280;44891;50.204;8.132;2023-05-23T12:55:57;98549.16;;;16.94;71.70
59106;BME280;44891;50.204;8.132;2023-05-23T12:59:58;98549.38;;;17.03;70.59
59106;BME280;44891;50.204;8.132;2023-05-23T13:04:00;98553.56;;;17.14;70.22
59106;BME280;44891;50.204;8.132;2023-05-23T13:08:02;98555.25;;;16.95;70.59
59106;BME280;44891;50.204;8.132;2023-05-23T13:12:06;98552.38;;;16.76;71.58
59106;BME280;44891;50.204;8.132;2023-05-23T13:16:08;98553.69;;;16.83;71.75
59106;BME280;44891;50.204;8.132;2023-05-23T13:20:10;98556.31;;;16.89;71.55
59106;BME280;44891;50.204;8.132;2023-05-23T13:24:13;98560.06;;;16.62;72.18
59106;BME280;44891;50.204;8.132;2023-05-23T13:28:17;98571.78;;;16.41;73.33
59106;BME280;44891;50.204;8.132;2023-05-23T13:32:18;98575.50;;;16.09;74.73
59106;BME280;44891;50.204;8.132;2023-05-23T13:36:20;98582.38;;;16.10;75.24
59106;BME280;44891;50.204;8.132;2023-05-23T13:40:22;98573.91;;;15.83;75.99
59106;BME280;44891;50.204;8.132;2023-05-23T13:44:25;98583.09;;;15.60;78.51
59106;BME280;44891;50.204;8.132;2023-05-23T13:48:27;98586.50;;;15.50;80.01
59106;BME280;44891;50.204;8.132;2023-05-23T13:52:29;98585.44;;;15.41;80.59
59106;BME280;44891;50.204;8.132;2023-05-23T13:56:31;98589.09;;;15.30;80.49
59106;BME280;44891;50.204;8.132;2023-05-23T14:00:34;98583.53;;;15.26;81.68
59106;BME280;44891;50.204;8.132;2023-05-23T14:04:36;98591.53;;;15.51;80.33
59106;BME280;44891;50.204;8.132;2023-05-23T14:08:38;98586.84;;;15.64;79.22
59106;BME280;44891;50.204;8.132;2023-05-23T14:12:40;98586.34;;;15.82;77.88
59106;BME280;44891;50.204;8.132;2023-05-23T14:16:43;98587.19;;;16.13;75.53
59106;BME280;44891;50.204;8.132;2023-05-23T14:20:45;98585.56;;;16.22;75.99
59106;BME280;44891;50.204;8.132;2023-05-23T14:24:47;98589.81;;;15.98;73.47
59106;BME280;44891;50.204;8.132;2023-05-23T14:28:48;98582.91;;;16.17;72.09
59106;BME280;44891;50.204;8.132;2023-05-23T14:32:52;98576.56;;;16.08;67.76
59106;BME280;44891;50.204;8.132;2023-05-23T14:36:53;98574.47;;;16.25;67.96
59106;BME280;44891;50.204;8.132;2023-05-23T14:40:55;98573.66;;;16.35;65.33
59106;BME280;44891;50.204;8.132;2023-05-23T14:44:58;98575.78;;;16.28;66.08
59106;BME280;44891;50.204;8.132;2023-05-23T14:49:01;98568.88;;;16.42;65.13
59106;BME280;44891;50.204;8.132;2023-05-23T14:53:03;98571.19;;;16.69;65.15
59106;BME280;44891;50.204;8.132;2023-05-23T14:57:05;98563.88;;;17.26;62.19
59106;BME280;44891;50.204;8.132;2023-05-23T15:01:07;98580.03;;;17.34;61.87
59106;BME280;44891;50.204;8.132;2023-05-23T15:05:10;98567.75;;;17.49;62.68
59106;BME280;44891;50.204;8.132;2023-05-23T15:09:13;98582.78;;;17.09;63.85
59106;BME280;44891;50.204;8.132;2023-05-23T15:13:15;98585.00;;;16.66;64.84
59106;BME280;44891;50.204;8.132;2023-05-23T15:17:17;98584.00;;;16.26;65.67
59106;BME280;44891;50.204;8.132;2023-05-23T15:21:20;98589.03;;;16.08;65.19
59106;BME280;44891;50.204;8.132;2023-05-23T15:25:22;98587.19;;;15.98;65.26
59106;BME280;44891;50.204;8.132;2023-05-23T15:29:25;98585.06;;;16.05;65.00
59106;BME280;44891;50.204;8.132;2023-05-23T15:33:27;98582.13;;;15.96;65.17
59106;BME280;44891;50.204;8.132;2023-05-23T15:37:30;98577.63;;;16.07;66.19
59106;BME280;44891;50.204;8.132;2023-05-23T15:41:32;98586.91;;;16.10;66.43
59106;BME280;44891;50.204;8.132;2023-05-23T15:45:34;98584.53;;;16.18;66.18
59106;BME280;44891;50.204;8.132;2023-05-23T15:49:36;98587.69;;;16.10;66.97
59106;BME280;44891;50.204;8.132;2023-05-23T15:53:39;98586.34;;;15.97;65.58
59106;BME280;44891;50.204;8.132;2023-05-23T15:57:41;98596.97;;;15.92;63.95
59106;BME280;44891;50.204;8.132;2023-05-23T16:01:43;98593.50;;;15.82;62.38
59106;BME280;44891;50.204;8.132;2023-05-23T16:05:45;98593.53;;;15.92;62.67
59106;BME280;44891;50.204;8.132;2023-05-23T16:09:48;98595.38;;;16.07;61.98
59106;BME280;44891;50.204;8.132;2023-05-23T16:13:50;98586.63;;;15.96;61.65
59106;BME280;44891;50.204;8.132;2023-05-23T16:17:52;98588.75;;;15.79;63.31
59106;BME280;44891;50.204;8.132;2023-05-23T16:21:54;98584.75;;;15.81;62.99
59106;BME280;44891;50.204;8.132;2023-05-23T16:25:57;98591.09;;;15.75;63.67
59106;BME280;44891;50.204;8.132;2023-05-23T16:29:59;98586.09;;;15.99;62.97
59106;BME280;44891;50.204;8.132;2023-05-23T16:34:01;98590.03;;;15.76;62.51
59106;BME280;44891;50.204;8.132;2023-05-23T16:38:03;98586.09;;;15.94;62.10
59106;BME280;44891;50.204;8.132;2023-05-23T16:42:06;98586.63;;;15.86;62.43
59106;BME280;44891;50.204;8.132;2023-05-23T16:46:08;98582.78;;;15.51;60.88
59106;BME280;44891;50.204;8.132;2023-05-23T16:50:10;98579.06;;;15.37;61.77
59106;BME280;44891;50.204;8.132;2023-05-23T16:54:12;98579.09;;;15.47;62.19
59106;BME280;44891;50.204;8.132;2023-05-23T16:58:15;98577.75;;;15.39;61.72
59106;BME280;44891;50.204;8.132;2023-05-23T17:02:17;98577.09;;;15.12;61.17
59106;BME280;44891;50.204;8.132;2023-05-23T17:06:19;98580.34;;;15.29;61.19
59106;BME280;44891;50.204;8.132;2023-05-23T17:10:21;98586.38;;;15.14;60.66
59106;BME280;44891;50.204;8.132;2023-05-23T17:14:24;98582.94;;;15.14;59.97
59106;BME280;44891;50.204;8.132;2023-05-23T17:18:26;98586.72;;;15.38;58.83
59106;BME280;44891;50.204;8.132;2023-05-23T17:22:28;98588.19;;;15.66;58.03
59106;BME280;44891;50.204;8.132;2023-05-23T17:26:29;98581.75;;;15.57;57.35
59106;BME280;44891;50.204;8.132;2023-05-23T17:30:33;98590.44;;;15.37;56.22
59106;BME280;44891;50.204;8.132;2023-05-23T17:34:35;98587.53;;;15.34;56.85
59106;BME280;44891;50.204;8.132;2023-05-23T17:38:37;98589.66;;;15.42;57.45
59106;BME280;44891;50.204;8.132;2023-05-23T17:42:38;98590.75;;;15.46;57.75
59106;BME280;44891;50.204;8.132;2023-05-23T17:46:42;98590.69;;;15.36;58.38
59106;BME280;44891;50.204;8.132;2023-05-23T17:50:44;98597.75;;;15.15;58.74
59106;BME280;44891;50.204;8.132;2023-05-23T17:54:46;98593.22;;;15.00;59.35
59106;BME280;44891;50.204;8.132;2023-05-23T17:58:47;98596.31;;;14.87;59.93
59106;BME280;44891;50.204;8.132;2023-05-23T18:02:51;98595.25;;;14.88;60.01
59106;BME280;44891;50.204;8.132;2023-05-23T18:06:52;98604.50;;;14.90;60.56
59106;BME280;44891;50.204;8.132;2023-05-23T18:10:54;98597.22;;;15.08;60.77
59106;BME280;44891;50.204;8.132;2023-05-23T18:14:56;98596.09;;;14.93;61.24
59106;BME280;44891;50.204;8.132;2023-05-23T18:18:59;98602.59;;;14.76;62.22
59106;BME280;44891;50.204;8.132;2023-05-23T18:23:01;98608.34;;;14.67;62.70
59106;BME280;44891;50.204;8.132;2023-05-23T18:27:04;98608.69;;;14.81;62.81
59106;BME280;44891;50.204;8.132;2023-05-23T18:31:06;98604.69;;;14.74;63.47
59106;BME280;44891;50.204;8.132;2023-05-23T18:35:09;98616.28;;;14.67;63.35
59106;BME280;44891;50.204;8.132;2023-05-23T18:39:11;98614.56;;;14.46;64.48
59106;BME280;44891;50.204;8.132;2023-05-23T18:43:12;98626.72;;;14.47;64.43
59106;BME280;44891;50.204;8.132;2023-05-23T18:47:16;98619.00;;;14.46;64.31
59106;BME280;44891;50.204;8.132;2023-05-23T18:51:19;98621.25;;;14.27;65.46
59106;BME280;44891;50.204;8.132;2023-05-23T18:55:21;98628.13;;;14.28;65.28
59106;BME280;44891;50.204;8.132;2023-05-23T18:59:23;98628.88;;;14.23;64.34
59106;BME280;44891;50.204;8.132;2023-05-23T19:03:25;98638.03;;;14.15;63.02
59106;BME280;44891;50.204;8.132;2023-05-23T19:07:28;98637.72;;;14.12;63.41
59106;BME280;44891;50.204;8.132;2023-05-23T19:11:30;98643.13;;;13.95;64.44
59106;BME280;44891;50.204;8.132;2023-05-23T19:15:32;98645.59;;;13.80;64.19
59106;BME280;44891;50.204;8.132;2023-05-23T19:19:34;98646.81;;;13.94;64.07
59106;BME280;44891;50.204;8.132;2023-05-23T19:23:37;98642.16;;;13.79;66.14
59106;BME280;44891;50.204;8.132;2023-05-23T19:27:39;98651.84;;;13.69;67.29
59106;BME280;44891;50.204;8.132;2023-05-23T19:31:41;98661.44;;;13.80;65.39
59106;BME280;44891;50.204;8.132;2023-05-23T19:35:43;98660.53;;;13.69;65.81
59106;BME280;44891;50.204;8.132;2023-05-23T19:39:46;98658.63;;;13.65;68.70
59106;BME280;44891;50.204;8.132;2023-05-23T19:43:48;98662.56;;;13.62;67.54
59106;BME280;44891;50.204;8.132;2023-05-23T19:47:50;98669.34;;;13.80;68.52
59106;BME280;44891;50.204;8.132;2023-05-23T19:51:52;98669.69;;;13.83;68.99
59106;BME280;44891;50.204;8.132;2023-05-23T19:55:55;98676.88;;;13.66;69.55
59106;BME280;44891;50.204;8.132;2023-05-23T19:59:58;98681.72;;;13.30;70.65
59106;BME280;44891;50.204;8.132;2023-05-23T20:03:59;98688.66;;;13.37;69.50
59106;BME280;44891;50.204;8.132;2023-05-23T20:08:01;98687.66;;;13.21;71.17
59106;BME280;44891;50.204;8.132;2023-05-23T20:12:05;98689.81;;;13.24;71.94
59106;BME280;44891;50.204;8.132;2023-05-23T20:16:07;98692.31;;;13.19;72.50
59106;BME280;44891;50.204;8.132;2023-05-23T20:20:09;98699.88;;;13.10;70.01
59106;BME280;44891;50.204;8.132;2023-05-23T20:24:11;98697.94;;;13.05;70.08
59106;BME280;44891;50.204;8.132;2023-05-23T20:28:15;98706.19;;;12.92;67.93
59106;BME280;44891;50.204;8.132;2023-05-23T20:32:17;98705.16;;;12.93;66.89
59106;BME280;44891;50.204;8.132;2023-05-23T20:36:19;98720.34;;;13.03;65.65
59106;BME280;44891;50.204;8.132;2023-05-23T20:40:21;98714.75;;;12.83;65.65
59106;BME280;44891;50.204;8.132;2023-05-23T20:44:24;98718.00;;;12.73;66.94
59106;BME280;44891;50.204;8.132;2023-05-23T20:48:26;98716.41;;;12.72;66.88
59106;BME280;44891;50.204;8.132;2023-05-23T20:52:28;98720.09;;;12.71;65.68
59106;BME280;44891;50.204;8.132;2023-05-23T20:56:30;98730.88;;;12.69;64.73
59106;BME280;44891;50.204;8.132;2023-05-23T21:00:33;98724.84;;;12.40;64.91
59106;BME280;44891;50.204;8.132;2023-05-23T21:04:35;98721.25;;;12.46;64.87
59106;BME280;44891;50.204;8.132;2023-05-23T21:08:37;98724.78;;;12.35;64.58
59106;BME280;44891;50.204;8.132;2023-05-23T21:12:38;98726.03;;;12.33;64.57
59106;BME280;44891;50.204;8.132;2023-05-23T21:16:47;98725.22;;;12.32;64.52
59106;BME280;44891;50.204;8.132;2023-05-23T21:20:49;98727.78;;;12.27;64.80
59106;BME280;44891;50.204;8.132;2023-05-23T21:24:51;98726.56;;;12.18;64.43
59106;BME280;44891;50.204;8.132;2023-05-23T21:28:53;98735.59;;;12.22;64.36